createdAt,value
2018-03-22T00:00:02.977Z,0
2018-03-22T00:01:02.924Z,0
2018-03-22T00:02:02.886Z,0
2018-03-22T00:03:02.388Z,0
2018-03-22T00:04:02.873Z,0
2018-03-22T00:05:02.819Z,0
2018-03-22T00:06:02.806Z,0
2018-03-22T00:07:02.781Z,0
2018-03-22T00:08:02.757Z,0
2018-03-22T00:09:02.514Z,0
2018-03-22T00:10:02.460Z,0
2018-03-22T00:11:02.432Z,0
2018-03-22T00:12:02.233Z,0
2018-03-22T00:13:02.644Z,0
2018-03-22T00:14:02.642Z,0
2018-03-22T00:15:02.345Z,0
2018-03-22T00:16:02.307Z,0
2018-03-22T00:17:02.295Z,0
2018-03-22T00:18:02.052Z,0
2018-03-22T00:19:02.543Z,0
2018-03-22T00:20:02.242Z,0
2018-03-22T00:21:01.943Z,0
2018-03-22T00:22:02.838Z,0
2018-03-22T00:23:02.212Z,0
2018-03-22T00:24:02.161Z,0
2018-03-22T00:25:02.444Z,0
2018-03-22T00:26:02.518Z,0
2018-03-22T00:27:02.404Z,0
2018-03-22T00:28:02.064Z,0
2018-03-22T00:29:02.405Z,0
2018-03-22T00:30:02.671Z,0
2018-03-22T00:31:02.445Z,0
2018-03-22T00:32:02.426Z,0
2018-03-22T00:33:01.698Z,0
2018-03-22T00:34:02.275Z,0
2018-03-22T00:35:02.452Z,0
2018-03-22T00:36:01.883Z,0
2018-03-22T00:37:01.333Z,0
2018-03-22T00:38:02.104Z,0
2018-03-22T00:39:01.925Z,0
2018-03-22T00:40:02.296Z,0
2018-03-22T00:41:01.827Z,0
2018-03-22T00:42:02.102Z,0
2018-03-22T00:43:01.742Z,0
2018-03-22T00:44:01.967Z,0
2018-03-22T00:45:01.821Z,0
2018-03-22T00:46:01.404Z,0
2018-03-22T00:47:01.717Z,0
2018-03-22T00:48:02.255Z,0
2018-03-22T00:49:01.868Z,0
2018-03-22T00:50:01.356Z,0
2018-03-22T00:51:01.886Z,0
2018-03-22T00:52:01.789Z,0
2018-03-22T00:53:01.773Z,0
2018-03-22T00:54:02.017Z,0
2018-03-22T00:55:01.769Z,0
2018-03-22T00:56:01.988Z,0
2018-03-22T00:57:01.979Z,0
2018-03-22T00:58:01.940Z,0
2018-03-22T00:59:01.394Z,0
2018-03-22T01:00:01.404Z,0
2018-03-22T01:01:01.606Z,0
2018-03-22T01:02:01.996Z,0
2018-03-22T01:03:01.038Z,0
2018-03-22T01:04:01.017Z,0
2018-03-22T01:05:01.545Z,0
2018-03-22T01:06:01.491Z,0
2018-03-22T01:07:01.245Z,0
2018-03-22T01:08:01.252Z,0
2018-03-22T01:09:01.734Z,0
2018-03-22T01:10:01.150Z,0
2018-03-22T01:11:00.871Z,0
2018-03-22T01:12:01.098Z,0
2018-03-22T01:13:01.178Z,0
2018-03-22T01:14:01.070Z,0
2018-03-22T01:15:01.075Z,0
2018-03-22T01:16:00.476Z,0
2018-03-22T01:17:00.995Z,0
2018-03-22T01:18:00.983Z,0
2018-03-22T01:19:01.269Z,0
2018-03-22T01:20:01.272Z,0
2018-03-22T01:21:01.294Z,0
2018-03-22T01:22:00.717Z,0
2018-03-22T01:23:01.136Z,0
2018-03-22T01:24:01.433Z,0
2018-03-22T01:25:00.844Z,0
2018-03-22T01:26:00.809Z,0
2018-03-22T01:27:00.773Z,0
2018-03-22T01:28:00.771Z,0
2018-03-22T01:29:00.731Z,0
2018-03-22T01:30:01.046Z,0
2018-03-22T01:31:00.983Z,0
2018-03-22T01:32:01.017Z,0
2018-03-22T01:33:00.667Z,0
2018-03-22T01:34:00.626Z,0
2018-03-22T01:35:00.619Z,0
2018-03-22T01:36:00.957Z,0
2018-03-22T01:37:01.302Z,0
2018-03-22T01:38:00.905Z,0
2018-03-22T01:39:00.444Z,0
2018-03-22T01:40:00.765Z,0
2018-03-22T01:41:00.732Z,0
2018-03-22T01:42:00.725Z,0
2018-03-22T01:43:00.179Z,0
2018-03-22T01:44:00.752Z,0
2018-03-22T01:45:00.460Z,0
2018-03-22T01:46:00.740Z,0
2018-03-22T01:47:00.880Z,0
2018-03-22T01:48:00.585Z,0
2018-03-22T01:49:00.428Z,0
2018-03-22T01:50:00.615Z,0
2018-03-22T01:51:00.269Z,0
2018-03-22T01:52:00.537Z,0
2018-03-22T01:53:00.500Z,0
2018-03-22T01:54:00.214Z,0
2018-03-22T01:55:00.691Z,0
2018-03-22T01:56:00.737Z,0
2018-03-22T01:57:01.057Z,0
2018-03-22T01:57:59.928Z,0
2018-03-22T01:58:59.909Z,0
2018-03-22T02:00:00.209Z,0
2018-03-22T02:01:00.601Z,0
2018-03-22T02:02:00.073Z,0
2018-03-22T02:03:00.575Z,0
2018-03-22T02:04:00.107Z,0
2018-03-22T02:04:59.784Z,0
2018-03-22T02:06:00.377Z,0
2018-03-22T02:07:00.444Z,0
2018-03-22T02:08:00.697Z,0
2018-03-22T02:08:59.931Z,0
2018-03-22T02:10:00.281Z,0
2018-03-22T02:11:00.368Z,0
2018-03-22T02:12:00.190Z,0
2018-03-22T02:12:59.868Z,0
2018-03-22T02:13:59.702Z,0
2018-03-22T02:14:59.739Z,0
2018-03-22T02:15:59.972Z,0
2018-03-22T02:16:59.420Z,0
2018-03-22T02:17:59.681Z,0
2018-03-22T02:19:00.228Z,0
2018-03-22T02:19:59.928Z,0
2018-03-22T02:21:00.021Z,0
2018-03-22T02:21:59.880Z,0
2018-03-22T02:22:59.686Z,0
2018-03-22T02:23:59.331Z,0
2018-03-22T02:25:00.108Z,0
2018-03-22T02:25:59.482Z,0
2018-03-22T02:26:59.480Z,0
2018-03-22T02:27:59.440Z,0
2018-03-22T02:28:59.505Z,0
2018-03-22T02:29:59.135Z,0
2018-03-22T02:31:00.049Z,0
2018-03-22T02:31:59.372Z,0
2018-03-22T02:32:59.595Z,0
2018-03-22T02:33:59.906Z,0
2018-03-22T02:34:59.585Z,0
2018-03-22T02:35:59.561Z,0
2018-03-22T02:36:59.592Z,0
2018-03-22T02:37:59.242Z,0
2018-03-22T02:38:59.017Z,0
2018-03-22T02:39:59.205Z,0
2018-03-22T02:40:59.512Z,0
2018-03-22T02:41:59.146Z,0
2018-03-22T02:42:59.474Z,0
2018-03-22T02:43:59.115Z,0
2018-03-22T02:44:59.431Z,0
2018-03-22T02:45:59.085Z,0
2018-03-22T02:46:59.063Z,0
2018-03-22T02:47:59.328Z,0
2018-03-22T02:48:59.019Z,0
2018-03-22T02:49:59.182Z,0
2018-03-22T02:50:59.245Z,0
2018-03-22T02:51:59.248Z,0
2018-03-22T02:52:58.941Z,0
2018-03-22T02:53:59.435Z,0
2018-03-22T02:54:58.876Z,0
2018-03-22T02:55:59.229Z,0
2018-03-22T02:56:59.000Z,0
2018-03-22T02:57:58.838Z,0
2018-03-22T02:58:59.129Z,0
2018-03-22T02:59:59.068Z,0
2018-03-22T03:00:58.762Z,0
2018-03-22T03:01:59.284Z,0
2018-03-22T03:02:58.462Z,0
2018-03-22T03:03:58.962Z,0
2018-03-22T03:04:58.935Z,0
2018-03-22T03:05:58.736Z,0
2018-03-22T03:06:58.358Z,0
2018-03-22T03:07:58.998Z,0
2018-03-22T03:08:58.866Z,0
2018-03-22T03:09:59.010Z,0
2018-03-22T03:10:58.345Z,0
2018-03-22T03:11:58.800Z,0
2018-03-22T03:12:58.868Z,0
2018-03-22T03:13:58.950Z,0
2018-03-22T03:14:58.506Z,0
2018-03-22T03:15:58.771Z,0
2018-03-22T03:16:58.670Z,0
2018-03-22T03:17:58.671Z,0
2018-03-22T03:18:58.888Z,0
2018-03-22T03:19:58.342Z,0
2018-03-22T03:20:58.169Z,0
2018-03-22T03:21:58.015Z,0
2018-03-22T03:22:58.016Z,0
2018-03-22T03:23:58.519Z,0
2018-03-22T03:24:58.230Z,0
2018-03-22T03:25:58.579Z,0
2018-03-22T03:26:58.374Z,0
2018-03-22T03:27:58.551Z,0
2018-03-22T03:28:58.292Z,0
2018-03-22T03:29:58.197Z,0
2018-03-22T03:30:58.255Z,0
2018-03-22T03:31:57.664Z,0
2018-03-22T03:32:58.079Z,0
2018-03-22T03:33:58.369Z,0
2018-03-22T03:34:58.057Z,0
2018-03-22T03:35:58.131Z,0
2018-03-22T03:36:58.611Z,0
2018-03-22T03:37:57.945Z,0
2018-03-22T03:38:58.084Z,0
2018-03-22T03:39:58.240Z,0
2018-03-22T03:40:57.948Z,0
2018-03-22T03:41:57.949Z,0
2018-03-22T03:42:58.186Z,0
2018-03-22T03:43:57.612Z,0
2018-03-22T03:44:58.234Z,0
2018-03-22T03:45:58.050Z,0
2018-03-22T03:46:58.181Z,0
2018-03-22T03:47:57.798Z,0
2018-03-22T03:48:58.044Z,0
2018-03-22T03:49:58.249Z,0
2018-03-22T03:50:57.179Z,0
2018-03-22T03:51:57.973Z,0
2018-03-22T03:52:57.673Z,0
2018-03-22T03:53:57.632Z,0
2018-03-22T03:54:58.255Z,0
2018-03-22T03:55:58.188Z,0
2018-03-22T03:56:57.738Z,0
2018-03-22T03:57:57.657Z,0
2018-03-22T03:58:57.522Z,0
2018-03-22T03:59:57.913Z,0
2018-03-22T04:00:57.701Z,0
2018-03-22T04:01:57.287Z,0
2018-03-22T04:02:57.496Z,0
2018-03-22T04:03:57.938Z,0
2018-03-22T04:04:57.760Z,0
2018-03-22T04:05:57.355Z,0
2018-03-22T04:06:57.397Z,0
2018-03-22T04:07:57.438Z,0
2018-03-22T04:08:57.580Z,0
2018-03-22T04:09:57.664Z,0
2018-03-22T04:10:57.721Z,0
2018-03-22T04:11:57.841Z,0
2018-03-22T04:12:57.140Z,0
2018-03-22T04:13:57.262Z,0
2018-03-22T04:14:56.884Z,0
2018-03-22T04:15:57.197Z,0
2018-03-22T04:16:57.370Z,0
2018-03-22T04:17:57.100Z,0
2018-03-22T04:18:57.613Z,0
2018-03-22T04:19:57.538Z,0
2018-03-22T04:20:57.417Z,0
2018-03-22T04:21:57.773Z,0
2018-03-22T04:22:57.456Z,0
2018-03-22T04:23:57.720Z,0
2018-03-22T04:24:57.541Z,0
2018-03-22T04:25:57.044Z,0
2018-03-22T04:26:57.195Z,0
2018-03-22T04:27:56.744Z,0
2018-03-22T04:28:57.211Z,0
2018-03-22T04:29:57.061Z,0
2018-03-22T04:30:56.986Z,0
2018-03-22T04:31:56.621Z,0
2018-03-22T04:32:57.041Z,0
2018-03-22T04:33:56.520Z,0
2018-03-22T04:34:56.765Z,0
2018-03-22T04:35:56.556Z,0
2018-03-22T04:36:56.944Z,0
2018-03-22T04:37:56.764Z,0
2018-03-22T04:38:56.789Z,0
2018-03-22T04:39:56.914Z,0
2018-03-22T04:40:57.241Z,0
2018-03-22T04:41:56.437Z,0
2018-03-22T04:42:57.108Z,0
2018-03-22T04:43:57.176Z,0
2018-03-22T04:44:56.237Z,0
2018-03-22T04:45:56.525Z,0
2018-03-22T04:46:56.979Z,0
2018-03-22T04:47:56.713Z,0
2018-03-22T04:48:56.863Z,0
2018-03-22T04:49:56.733Z,0
2018-03-22T04:50:56.645Z,0
2018-03-22T04:51:56.109Z,0
2018-03-22T04:52:56.077Z,0
2018-03-22T04:53:56.686Z,0
2018-03-22T04:54:56.549Z,0
2018-03-22T04:55:55.995Z,0
2018-03-22T04:56:55.982Z,0
2018-03-22T04:57:56.778Z,0
2018-03-22T04:58:57.059Z,0
2018-03-22T04:59:56.409Z,0
2018-03-22T05:00:56.492Z,0
2018-03-22T05:01:56.710Z,0
2018-03-22T05:02:56.041Z,0
2018-03-22T05:03:56.665Z,0
2018-03-22T05:04:56.966Z,0
2018-03-22T05:05:56.494Z,0
2018-03-22T05:06:56.576Z,0
2018-03-22T05:07:56.859Z,0
2018-03-22T05:08:56.475Z,0
2018-03-22T05:09:55.742Z,0
2018-03-22T05:10:56.650Z,0
2018-03-22T05:11:56.222Z,0
2018-03-22T05:12:56.676Z,0
2018-03-22T05:13:55.984Z,0
2018-03-22T05:14:55.862Z,0
2018-03-22T05:15:56.029Z,0
2018-03-22T05:16:56.300Z,0
2018-03-22T05:17:55.937Z,0
2018-03-22T05:18:56.597Z,0
2018-03-22T05:19:56.711Z,0
2018-03-22T05:20:55.935Z,0
2018-03-22T05:21:56.256Z,0
2018-03-22T05:22:56.512Z,0
2018-03-22T05:23:55.905Z,0
2018-03-22T05:24:55.935Z,0
2018-03-22T05:25:56.320Z,0
2018-03-22T05:26:56.443Z,0
2018-03-22T05:27:56.355Z,0
2018-03-22T05:28:55.689Z,0
2018-03-22T05:29:55.928Z,0
2018-03-22T05:30:56.244Z,0
2018-03-22T05:31:55.588Z,0
2018-03-22T05:32:55.900Z,0
2018-03-22T05:33:56.206Z,0
2018-03-22T05:34:55.868Z,0
2018-03-22T05:35:55.547Z,0
2018-03-22T05:36:55.906Z,0
2018-03-22T05:37:55.289Z,0
2018-03-22T05:38:55.929Z,0
2018-03-22T05:39:56.037Z,0
2018-03-22T05:40:55.704Z,0
2018-03-22T05:41:55.660Z,0
2018-03-22T05:42:55.878Z,0
2018-03-22T05:43:55.479Z,0
2018-03-22T05:44:55.127Z,0
2018-03-22T05:45:55.716Z,0
2018-03-22T05:46:55.401Z,0
2018-03-22T05:47:55.361Z,5
2018-03-22T05:48:55.340Z,5
2018-03-22T05:49:54.792Z,5
2018-03-22T05:50:55.307Z,5
2018-03-22T05:51:55.272Z,5
2018-03-22T05:52:55.556Z,5
2018-03-22T05:53:54.689Z,5
2018-03-22T05:54:54.931Z,5
2018-03-22T05:55:55.779Z,10
2018-03-22T05:56:54.893Z,10
2018-03-22T05:57:54.604Z,10
2018-03-22T05:58:55.111Z,10
2018-03-22T05:59:55.091Z,10
2018-03-22T06:00:55.066Z,10
2018-03-22T06:01:54.778Z,10
2018-03-22T06:02:55.290Z,10
2018-03-22T06:03:54.463Z,10
2018-03-22T06:04:54.990Z,10
2018-03-22T06:05:54.951Z,5
2018-03-22T06:06:54.934Z,5
2018-03-22T06:07:54.644Z,10
2018-03-22T06:08:55.088Z,10
2018-03-22T06:09:54.332Z,5
2018-03-22T06:10:55.112Z,10
2018-03-22T06:11:54.290Z,10
2018-03-22T06:12:54.264Z,10
2018-03-22T06:13:54.507Z,10
2018-03-22T06:14:54.478Z,10
2018-03-22T06:15:54.202Z,10
2018-03-22T06:16:54.709Z,10
2018-03-22T06:17:54.155Z,10
2018-03-22T06:18:54.686Z,10
2018-03-22T06:19:54.630Z,10
2018-03-22T06:20:54.358Z,10
2018-03-22T06:21:54.063Z,15
2018-03-22T06:22:54.044Z,10
2018-03-22T06:23:54.283Z,10
2018-03-22T06:24:54.796Z,15
2018-03-22T06:25:54.531Z,15
2018-03-22T06:26:54.208Z,15
2018-03-22T06:27:54.460Z,15
2018-03-22T06:28:53.901Z,15
2018-03-22T06:29:53.882Z,15
2018-03-22T06:30:54.134Z,20
2018-03-22T06:31:54.099Z,20
2018-03-22T06:32:54.211Z,30
2018-03-22T06:33:54.325Z,25
2018-03-22T06:34:54.043Z,25
2018-03-22T06:35:54.016Z,20
2018-03-22T06:36:54.532Z,20
2018-03-22T06:37:53.705Z,15
2018-03-22T06:38:53.999Z,20
2018-03-22T06:39:54.176Z,20
2018-03-22T06:40:54.174Z,20
2018-03-22T06:41:54.147Z,15
2018-03-22T06:42:54.124Z,20
2018-03-22T06:43:54.089Z,25
2018-03-22T06:44:53.869Z,25
2018-03-22T06:45:53.523Z,25
2018-03-22T06:46:54.032Z,25
2018-03-22T06:47:53.742Z,20
2018-03-22T06:48:53.724Z,25
2018-03-22T06:49:53.436Z,25
2018-03-22T06:50:53.681Z,30
2018-03-22T06:51:53.387Z,20
2018-03-22T06:52:53.628Z,20
2018-03-22T06:53:53.872Z,25
2018-03-22T06:54:53.842Z,25
2018-03-22T06:55:54.098Z,25
2018-03-22T06:56:53.306Z,15
2018-03-22T06:57:53.511Z,20
2018-03-22T06:58:52.963Z,20
2018-03-22T06:59:54.002Z,25
2018-03-22T07:00:53.452Z,30
2018-03-22T07:01:53.199Z,20
2018-03-22T07:02:53.945Z,20
2018-03-22T07:03:53.400Z,20
2018-03-22T07:04:53.367Z,15
2018-03-22T07:05:53.080Z,15
2018-03-22T07:06:53.641Z,20
2018-03-22T07:07:53.564Z,15
2018-03-22T07:08:53.535Z,15
2018-03-22T07:09:52.988Z,20
2018-03-22T07:10:53.504Z,20
2018-03-22T07:11:53.195Z,25
2018-03-22T07:12:53.192Z,20
2018-03-22T07:13:53.437Z,20
2018-03-22T07:14:53.146Z,20
2018-03-22T07:15:53.127Z,20
2018-03-22T07:16:53.636Z,20
2018-03-22T07:17:53.073Z,25
2018-03-22T07:18:53.047Z,25
2018-03-22T07:19:53.341Z,25
2018-03-22T07:20:53.265Z,20
2018-03-22T07:21:53.260Z,15
2018-03-22T07:22:53.233Z,20
2018-03-22T07:23:52.929Z,25
2018-03-22T07:24:53.175Z,30
2018-03-22T07:25:53.148Z,20
2018-03-22T07:26:53.407Z,20
2018-03-22T07:27:53.155Z,20
2018-03-22T07:28:52.830Z,20
2018-03-22T07:29:52.799Z,25
2018-03-22T07:30:53.046Z,20
2018-03-22T07:31:53.022Z,15
2018-03-22T07:32:52.731Z,20
2018-03-22T07:33:52.444Z,25
2018-03-22T07:34:52.686Z,30
2018-03-22T07:35:52.674Z,25
2018-03-22T07:36:53.031Z,25
2018-03-22T07:37:52.888Z,25
2018-03-22T07:38:52.866Z,25
2018-03-22T07:39:52.579Z,35
2018-03-22T07:40:52.382Z,40
2018-03-22T07:41:52.300Z,30
2018-03-22T07:42:53.061Z,25
2018-03-22T07:43:52.764Z,20
2018-03-22T07:44:52.736Z,25
2018-03-22T07:45:52.966Z,25
2018-03-22T07:46:52.423Z,25
2018-03-22T07:47:52.130Z,25
2018-03-22T07:48:52.905Z,25
2018-03-22T07:49:52.087Z,25
2018-03-22T07:50:52.594Z,30
2018-03-22T07:51:52.574Z,30
2018-03-22T07:52:52.872Z,50
2018-03-22T07:53:52.535Z,45
2018-03-22T07:54:52.500Z,55
2018-03-22T07:55:52.224Z,45
2018-03-22T07:56:51.936Z,40
2018-03-22T07:57:52.436Z,35
2018-03-22T07:58:51.880Z,30
2018-03-22T07:59:52.393Z,30
2018-03-22T08:00:52.672Z,35
2018-03-22T08:01:52.378Z,30
2018-03-22T08:02:52.064Z,30
2018-03-22T08:03:52.044Z,30
2018-03-22T08:04:51.745Z,30
2018-03-22T08:05:52.525Z,30
2018-03-22T08:06:52.229Z,30
2018-03-22T08:07:51.952Z,25
2018-03-22T08:08:52.180Z,25
2018-03-22T08:09:51.633Z,30
2018-03-22T08:10:52.413Z,30
2018-03-22T08:11:51.851Z,40
2018-03-22T08:12:51.826Z,40
2018-03-22T08:13:52.085Z,45
2018-03-22T08:14:51.779Z,55
2018-03-22T08:15:51.761Z,75
2018-03-22T08:16:52.006Z,85
2018-03-22T08:17:52.264Z,75
2018-03-22T08:18:52.228Z,80
2018-03-22T08:19:51.937Z,85
2018-03-22T08:20:51.655Z,90
2018-03-22T08:21:51.898Z,60
2018-03-22T08:22:51.881Z,50
2018-03-22T08:23:51.600Z,50
2018-03-22T08:24:51.309Z,50
2018-03-22T08:25:51.546Z,55
2018-03-22T08:26:51.261Z,55
2018-03-22T08:27:51.497Z,55
2018-03-22T08:28:51.526Z,65
2018-03-22T08:29:51.722Z,70
2018-03-22T08:30:51.436Z,60
2018-03-22T08:31:51.411Z,55
2018-03-22T08:32:51.651Z,55
2018-03-22T08:33:51.363Z,60
2018-03-22T08:34:51.338Z,60
2018-03-22T08:35:51.348Z,60
2018-03-22T08:36:51.291Z,55
2018-03-22T08:37:51.546Z,60
2018-03-22T08:38:51.256Z,55
2018-03-22T08:39:51.761Z,60
2018-03-22T08:40:51.724Z,55
2018-03-22T08:41:51.456Z,60
2018-03-22T08:42:51.153Z,45
2018-03-22T08:43:51.407Z,50
2018-03-22T08:44:51.392Z,55
2018-03-22T08:45:50.825Z,50
2018-03-22T08:46:51.334Z,55
2018-03-22T08:47:51.049Z,55
2018-03-22T08:48:50.767Z,60
2018-03-22T08:49:51.007Z,50
2018-03-22T08:50:51.243Z,65
2018-03-22T08:51:50.957Z,60
2018-03-22T08:52:51.466Z,60
2018-03-22T08:53:50.914Z,45
2018-03-22T08:54:51.276Z,45
2018-03-22T08:55:50.865Z,45
2018-03-22T08:56:50.583Z,50
2018-03-22T08:57:50.559Z,55
2018-03-22T08:58:50.811Z,55
2018-03-22T08:59:50.841Z,55
2018-03-22T09:00:50.504Z,50
2018-03-22T09:01:50.934Z,55
2018-03-22T09:02:50.452Z,50
2018-03-22T09:03:50.418Z,55
2018-03-22T09:04:50.399Z,60
2018-03-22T09:05:50.644Z,60
2018-03-22T09:06:50.359Z,60
2018-03-22T09:07:50.068Z,55
2018-03-22T09:08:50.856Z,50
2018-03-22T09:09:50.113Z,55
2018-03-22T09:10:50.813Z,50
2018-03-22T09:11:50.247Z,50
2018-03-22T09:12:50.750Z,55
2018-03-22T09:13:50.743Z,60
2018-03-22T09:14:50.197Z,55
2018-03-22T09:15:50.954Z,60
2018-03-22T09:16:50.133Z,60
2018-03-22T09:17:50.383Z,65
2018-03-22T09:18:50.616Z,60
2018-03-22T09:19:50.610Z,65
2018-03-22T09:20:50.051Z,70
2018-03-22T09:21:50.824Z,60
2018-03-22T09:22:50.566Z,60
2018-03-22T09:23:50.532Z,65
2018-03-22T09:24:50.235Z,60
2018-03-22T09:25:50.744Z,55
2018-03-22T09:26:50.718Z,60
2018-03-22T09:27:49.927Z,75
2018-03-22T09:28:50.417Z,90
2018-03-22T09:29:49.873Z,110
2018-03-22T09:30:50.100Z,80
2018-03-22T09:31:50.341Z,70
2018-03-22T09:32:50.071Z,65
2018-03-22T09:33:50.035Z,70
2018-03-22T09:34:50.020Z,65
2018-03-22T09:35:49.988Z,70
2018-03-22T09:36:50.236Z,60
2018-03-22T09:37:49.958Z,60
2018-03-22T09:38:49.671Z,70
2018-03-22T09:39:49.931Z,60
2018-03-22T09:40:50.144Z,60
2018-03-22T09:41:49.646Z,60
2018-03-22T09:42:49.917Z,60
2018-03-22T09:43:50.126Z,65
2018-03-22T09:44:49.788Z,85
2018-03-22T09:45:49.248Z,70
2018-03-22T09:46:49.746Z,75
2018-03-22T09:47:49.463Z,70
2018-03-22T09:48:49.707Z,60
2018-03-22T09:49:49.687Z,70
2018-03-22T09:50:49.661Z,75
2018-03-22T09:51:49.659Z,80
2018-03-22T09:52:49.898Z,70
2018-03-22T09:53:49.343Z,65
2018-03-22T09:54:49.574Z,65
2018-03-22T09:55:49.546Z,55
2018-03-22T09:56:50.062Z,55
2018-03-22T09:57:49.552Z,55
2018-03-22T09:58:49.794Z,55
2018-03-22T09:59:49.728Z,60
2018-03-22T10:00:49.719Z,60
2018-03-22T10:01:49.434Z,65
2018-03-22T10:02:49.836Z,55
2018-03-22T10:03:49.746Z,60
2018-03-22T10:04:49.671Z,75
2018-03-22T10:05:49.599Z,75
2018-03-22T10:06:49.662Z,80
2018-03-22T10:07:49.704Z,60
2018-03-22T10:08:49.708Z,70
2018-03-22T10:09:49.322Z,65
2018-03-22T10:10:49.300Z,75
2018-03-22T10:11:48.944Z,70
2018-03-22T10:12:48.763Z,55
2018-03-22T10:13:49.452Z,55
2018-03-22T10:14:49.336Z,45
2018-03-22T10:15:49.125Z,45
2018-03-22T10:16:49.117Z,55
2018-03-22T10:17:49.123Z,60
2018-03-22T10:18:49.096Z,70
2018-03-22T10:19:49.036Z,65
2018-03-22T10:20:48.748Z,70
2018-03-22T10:21:48.818Z,70
2018-03-22T10:22:49.322Z,70
2018-03-22T10:23:49.493Z,80
2018-03-22T10:24:48.948Z,105
2018-03-22T10:25:49.186Z,85
2018-03-22T10:26:48.897Z,80
2018-03-22T10:27:49.213Z,85
2018-03-22T10:28:48.968Z,95
2018-03-22T10:29:49.426Z,80
2018-03-22T10:30:48.849Z,75
2018-03-22T10:31:49.120Z,70
2018-03-22T10:32:49.070Z,65
2018-03-22T10:33:48.517Z,60
2018-03-22T10:34:49.073Z,60
2018-03-22T10:35:49.010Z,65
2018-03-22T10:36:49.247Z,75
2018-03-22T10:37:49.250Z,65
2018-03-22T10:38:48.662Z,65
2018-03-22T10:39:49.146Z,65
2018-03-22T10:40:48.938Z,80
2018-03-22T10:41:48.894Z,80
2018-03-22T10:42:49.138Z,85
2018-03-22T10:43:48.879Z,80
2018-03-22T10:44:48.592Z,80
2018-03-22T10:45:48.797Z,80
2018-03-22T10:46:48.495Z,80
2018-03-22T10:47:48.940Z,75
2018-03-22T10:48:49.045Z,90
2018-03-22T10:49:48.697Z,95
2018-03-22T10:50:48.710Z,105
2018-03-22T10:51:48.127Z,85
2018-03-22T10:52:48.172Z,90
2018-03-22T10:53:48.322Z,95
2018-03-22T10:54:48.566Z,90
2018-03-22T10:55:48.354Z,95
2018-03-22T10:56:48.795Z,85
2018-03-22T10:57:48.506Z,75
2018-03-22T10:58:48.221Z,85
2018-03-22T10:59:48.199Z,80
2018-03-22T11:00:48.443Z,95
2018-03-22T11:01:48.152Z,105
2018-03-22T11:02:47.869Z,105
2018-03-22T11:03:48.118Z,100
2018-03-22T11:04:48.644Z,90
2018-03-22T11:05:48.351Z,85
2018-03-22T11:06:48.061Z,85
2018-03-22T11:07:48.033Z,90
2018-03-22T11:08:48.285Z,90
2018-03-22T11:09:48.250Z,85
2018-03-22T11:10:48.520Z,90
2018-03-22T11:11:47.960Z,95
2018-03-22T11:12:48.464Z,110
2018-03-22T11:13:47.700Z,100
2018-03-22T11:14:47.360Z,95
2018-03-22T11:15:48.143Z,115
2018-03-22T11:16:48.111Z,100
2018-03-22T11:17:48.359Z,110
2018-03-22T11:18:47.280Z,95
2018-03-22T11:19:48.362Z,95
2018-03-22T11:20:48.042Z,85
2018-03-22T11:21:48.022Z,105
2018-03-22T11:22:47.731Z,95
2018-03-22T11:23:47.718Z,90
2018-03-22T11:24:47.159Z,85
2018-03-22T11:25:47.670Z,100
2018-03-22T11:26:47.943Z,120
2018-03-22T11:27:47.905Z,145
2018-03-22T11:28:47.666Z,160
2018-03-22T11:29:48.135Z,175
2018-03-22T11:30:47.566Z,115
2018-03-22T11:31:47.284Z,80
2018-03-22T11:32:47.798Z,90
2018-03-22T11:33:47.512Z,125
2018-03-22T11:34:47.807Z,125
2018-03-22T11:35:47.849Z,105
2018-03-22T11:36:48.077Z,110
2018-03-22T11:37:47.775Z,95
2018-03-22T11:38:47.810Z,80
2018-03-22T11:39:47.689Z,85
2018-03-22T11:40:47.135Z,95
2018-03-22T11:41:47.654Z,110
2018-03-22T11:42:47.351Z,140
2018-03-22T11:43:47.485Z,155
2018-03-22T11:44:47.040Z,175
2018-03-22T11:45:47.275Z,265
2018-03-22T11:46:47.564Z,525
2018-03-22T11:47:47.646Z,310
2018-03-22T11:48:47.514Z,355
2018-03-22T11:49:47.131Z,270
2018-03-22T11:50:46.681Z,295
2018-03-22T11:51:47.204Z,345
2018-03-22T11:52:47.138Z,390
2018-03-22T11:53:47.232Z,165
2018-03-22T11:54:47.101Z,165
2018-03-22T11:55:47.083Z,255
2018-03-22T11:56:47.011Z,175
2018-03-22T11:57:47.046Z,155
2018-03-22T11:58:47.034Z,200
2018-03-22T11:59:46.766Z,115
2018-03-22T12:00:46.460Z,135
2018-03-22T12:01:46.443Z,170
2018-03-22T12:02:47.585Z,140
2018-03-22T12:03:47.260Z,90
2018-03-22T12:04:47.268Z,90
2018-03-22T12:05:46.916Z,95
2018-03-22T12:06:46.617Z,95
2018-03-22T12:07:47.402Z,140
2018-03-22T12:08:47.374Z,195
2018-03-22T12:09:47.094Z,185
2018-03-22T12:10:46.814Z,150
2018-03-22T12:11:47.059Z,130
2018-03-22T12:12:46.775Z,115
2018-03-22T12:13:46.501Z,100
2018-03-22T12:14:46.739Z,75
2018-03-22T12:15:46.995Z,90
2018-03-22T12:16:46.978Z,75
2018-03-22T12:17:46.420Z,85
2018-03-22T12:18:46.665Z,60
2018-03-22T12:19:46.657Z,60
2018-03-22T12:20:46.625Z,55
2018-03-22T12:21:46.672Z,100
2018-03-22T12:22:46.857Z,75
2018-03-22T12:23:46.053Z,50
2018-03-22T12:24:46.330Z,45
2018-03-22T12:25:46.292Z,55
2018-03-22T12:26:46.816Z,60
2018-03-22T12:27:47.091Z,65
2018-03-22T12:28:46.472Z,50
2018-03-22T12:29:47.044Z,50
2018-03-22T12:30:46.215Z,50
2018-03-22T12:31:46.184Z,50
2018-03-22T12:32:46.749Z,45
2018-03-22T12:33:46.151Z,45
2018-03-22T12:34:46.722Z,60
2018-03-22T12:35:46.151Z,50
2018-03-22T12:36:46.639Z,40
2018-03-22T12:37:47.038Z,40
2018-03-22T12:38:45.792Z,40
2018-03-22T12:39:46.545Z,50
2018-03-22T12:40:46.291Z,45
2018-03-22T12:41:46.512Z,60
2018-03-22T12:42:46.497Z,50
2018-03-22T12:43:47.017Z,50
2018-03-22T12:44:45.954Z,50
2018-03-22T12:45:46.167Z,45
2018-03-22T12:46:46.108Z,45
2018-03-22T12:47:46.125Z,50
2018-03-22T12:48:46.319Z,55
2018-03-22T12:49:46.627Z,60
2018-03-22T12:50:46.057Z,60
2018-03-22T12:51:46.685Z,55
2018-03-22T12:52:46.569Z,45
2018-03-22T12:53:45.770Z,45
2018-03-22T12:54:46.280Z,45
2018-03-22T12:55:46.565Z,55
2018-03-22T12:56:45.964Z,60
2018-03-22T12:57:45.665Z,65
2018-03-22T12:58:46.606Z,60
2018-03-22T12:59:46.431Z,100
2018-03-22T13:00:45.891Z,110
2018-03-22T13:01:46.247Z,155
2018-03-22T13:02:45.892Z,175
2018-03-22T13:03:46.075Z,215
2018-03-22T13:04:46.053Z,235
2018-03-22T13:05:46.303Z,275
2018-03-22T13:06:46.073Z,275
2018-03-22T13:07:45.236Z,260
2018-03-22T13:08:45.738Z,215
2018-03-22T13:09:46.084Z,140
2018-03-22T13:10:45.970Z,140
2018-03-22T13:11:46.256Z,135
2018-03-22T13:12:45.734Z,190
2018-03-22T13:13:45.940Z,170
2018-03-22T13:14:46.155Z,125
2018-03-22T13:15:45.321Z,160
2018-03-22T13:16:45.305Z,190
2018-03-22T13:17:45.557Z,200
2018-03-22T13:18:45.656Z,195
2018-03-22T13:19:46.122Z,185
2018-03-22T13:20:45.497Z,160
2018-03-22T13:21:46.160Z,155
2018-03-22T13:22:45.810Z,165
2018-03-22T13:23:46.131Z,155
2018-03-22T13:24:46.251Z,155
2018-03-22T13:25:45.720Z,160
2018-03-22T13:26:45.601Z,155
2018-03-22T13:27:45.783Z,160
2018-03-22T13:28:45.831Z,155
2018-03-22T13:29:45.735Z,155
2018-03-22T13:30:45.619Z,130
2018-03-22T13:31:45.567Z,110
2018-03-22T13:32:45.320Z,115
2018-03-22T13:33:45.530Z,120
2018-03-22T13:34:45.840Z,115
2018-03-22T13:35:45.245Z,110
2018-03-22T13:36:45.362Z,95
2018-03-22T13:37:44.924Z,85
2018-03-22T13:38:45.166Z,75
2018-03-22T13:39:44.621Z,80
2018-03-22T13:40:45.401Z,75
2018-03-22T13:41:45.389Z,80
2018-03-22T13:42:45.444Z,85
2018-03-22T13:43:45.091Z,90
2018-03-22T13:44:45.335Z,100
2018-03-22T13:45:45.318Z,100
2018-03-22T13:46:45.046Z,85
2018-03-22T13:47:44.746Z,85
2018-03-22T13:48:45.321Z,105
2018-03-22T13:49:45.405Z,120
2018-03-22T13:50:44.886Z,140
2018-03-22T13:51:44.688Z,130
2018-03-22T13:52:45.244Z,105
2018-03-22T13:53:44.666Z,85
2018-03-22T13:54:44.930Z,65
2018-03-22T13:55:45.410Z,55
2018-03-22T13:56:45.593Z,60
2018-03-22T13:57:45.364Z,55
2018-03-22T13:58:44.808Z,50
2018-03-22T13:59:45.061Z,45
2018-03-22T14:00:44.255Z,45
2018-03-22T14:01:45.029Z,60
2018-03-22T14:02:44.744Z,55
2018-03-22T14:03:44.726Z,50
2018-03-22T14:04:44.209Z,50
2018-03-22T14:05:45.088Z,70
2018-03-22T14:06:45.111Z,90
2018-03-22T14:07:44.441Z,110
2018-03-22T14:08:44.727Z,115
2018-03-22T14:09:45.288Z,110
2018-03-22T14:10:44.642Z,115
2018-03-22T14:11:44.890Z,110
2018-03-22T14:12:44.779Z,100
2018-03-22T14:13:44.664Z,100
2018-03-22T14:14:44.553Z,100
2018-03-22T14:15:45.210Z,105
2018-03-22T14:16:44.995Z,95
2018-03-22T14:17:44.608Z,90
2018-03-22T14:18:44.454Z,95
2018-03-22T14:19:44.777Z,100
2018-03-22T14:20:44.493Z,90
2018-03-22T14:21:44.490Z,90
2018-03-22T14:22:44.429Z,90
2018-03-22T14:23:44.147Z,75